sensor_id;sensor_type;location;lat;lon;timestamp;P1;durP1;ratioP1;P2;durP2;ratioP2
67195;SDS011;54122;53.538;49.366;2023-10-09T00:00:57;0.52;;;0.28;;
67195;SDS011;54122;53.538;49.366;2023-10-09T00:03:30;0.55;;;0.10;;
67195;SDS011;54122;53.538;49.366;2023-10-09T00:05:57;0.10;;;0.00;;
67195;SDS011;54122;53.538;49.366;2023-10-09T00:08:24;0.30;;;0.15;;
67195;SDS011;54122;53.538;49.366;2023-10-09T00:10:57;0.93;;;0.35;;
67195;SDS011;54122;53.538;49.366;2023-10-09T00:13:43;4.00;;;0.40;;
67195;SDS011;54122;53.538;49.366;2023-10-09T00:16:21;0.47;;;0.15;;
67195;SDS011;54122;53.538;49.366;2023-10-09T00:19:01;3.40;;;0.20;;
67195;SDS011;54122;53.538;49.366;2023-10-09T00:21:46;0.45;;;0.22;;
67195;SDS011;54122;53.538;49.366;2023-10-09T00:24:14;0.55;;;0.35;;
67195;SDS011;54122;53.538;49.366;2023-10-09T00:26:51;2.30;;;0.30;;
67195;SDS011;54122;53.538;49.366;2023-10-09T00:29:18;0.17;;;0.13;;
67195;SDS011;54122;53.538;49.366;2023-10-09T00:31:51;3.60;;;0.22;;
67195;SDS011;54122;53.538;49.366;2023-10-09T00:34:29;0.00;;;0.00;;
67195;SDS011;54122;53.538;49.366;2023-10-09T00:37:08;0.55;;;0.10;;
67195;SDS011;54122;53.538;49.366;2023-10-09T00:39:45;1.63;;;0.35;;
67195;SDS011;54122;53.538;49.366;2023-10-09T00:42:14;0.15;;;0.10;;
67195;SDS011;54122;53.538;49.366;2023-10-09T00:44:51;0.52;;;0.20;;
67195;SDS011;54122;53.538;49.366;2023-10-09T00:47:17;0.30;;;0.10;;
67195;SDS011;54122;53.538;49.366;2023-10-09T00:49:51;4.47;;;0.17;;
67195;SDS011;54122;53.538;49.366;2023-10-09T00:52:34;0.45;;;0.20;;
67195;SDS011;54122;53.538;49.366;2023-10-09T00:55:11;0.77;;;0.20;;
67195;SDS011;54122;53.538;49.366;2023-10-09T00:57:46;1.42;;;0.30;;
67195;SDS011;54122;53.538;49.366;2023-10-09T01:00:24;0.40;;;0.13;;
67195;SDS011;54122;53.538;49.366;2023-10-09T01:03:09;1.88;;;0.25;;
67195;SDS011;54122;53.538;49.366;2023-10-09T01:05:43;0.32;;;0.17;;
67195;SDS011;54122;53.538;49.366;2023-10-09T01:08:32;0.05;;;0.00;;
67195;SDS011;54122;53.538;49.366;2023-10-09T01:11:12;0.68;;;0.30;;
67195;SDS011;54122;53.538;49.366;2023-10-09T01:13:55;0.43;;;0.30;;
67195;SDS011;54122;53.538;49.366;2023-10-09T01:16:37;2.45;;;0.10;;
67195;SDS011;54122;53.538;49.366;2023-10-09T01:19:07;0.17;;;0.08;;
67195;SDS011;54122;53.538;49.366;2023-10-09T01:21:39;3.67;;;0.40;;
67195;SDS011;54122;53.538;49.366;2023-10-09T01:24:05;2.08;;;0.55;;
67195;SDS011;54122;53.538;49.366;2023-10-09T01:26:35;0.85;;;0.35;;
67195;SDS011;54122;53.538;49.366;2023-10-09T01:29:10;0.45;;;0.15;;
67195;SDS011;54122;53.538;49.366;2023-10-09T01:31:48;0.85;;;0.10;;
67195;SDS011;54122;53.538;49.366;2023-10-09T01:37:07;0.22;;;0.08;;
67195;SDS011;54122;53.538;49.366;2023-10-09T01:39:40;2.10;;;0.60;;
67195;SDS011;54122;53.538;49.366;2023-10-09T01:42:08;1.40;;;0.65;;
67195;SDS011;54122;53.538;49.366;2023-10-09T01:44:35;0.20;;;0.13;;
67195;SDS011;54122;53.538;49.366;2023-10-09T01:47:08;16.25;;;0.95;;
67195;SDS011;54122;53.538;49.366;2023-10-09T01:49:39;0.35;;;0.20;;
67195;SDS011;54122;53.538;49.366;2023-10-09T01:52:10;2.30;;;0.25;;
67195;SDS011;54122;53.538;49.366;2023-10-09T01:54:41;0.17;;;0.17;;
67195;SDS011;54122;53.538;49.366;2023-10-09T01:57:12;0.40;;;0.30;;
67195;SDS011;54122;53.538;49.366;2023-10-09T01:59:39;0.52;;;0.28;;
67195;SDS011;54122;53.538;49.366;2023-10-09T02:02:25;0.45;;;0.22;;
67195;SDS011;54122;53.538;49.366;2023-10-09T02:04:55;1.45;;;0.30;;
67195;SDS011;54122;53.538;49.366;2023-10-09T02:07:50;0.03;;;0.03;;
67195;SDS011;54122;53.538;49.366;2023-10-09T02:15:29;0.98;;;0.10;;
67195;SDS011;54122;53.538;49.366;2023-10-09T02:18:14;0.63;;;0.35;;
67195;SDS011;54122;53.538;49.366;2023-10-09T02:23:25;0.57;;;0.22;;
67195;SDS011;54122;53.538;49.366;2023-10-09T02:26:04;0.68;;;0.10;;
67195;SDS011;54122;53.538;49.366;2023-10-09T02:28:31;0.17;;;0.17;;
67195;SDS011;54122;53.538;49.366;2023-10-09T02:30:58;1.48;;;0.73;;
67195;SDS011;54122;53.538;49.366;2023-10-09T02:33:44;0.60;;;0.47;;
67195;SDS011;54122;53.538;49.366;2023-10-09T02:36:10;3.78;;;1.02;;
67195;SDS011;54122;53.538;49.366;2023-10-09T02:38:37;0.75;;;0.45;;
67195;SDS011;54122;53.538;49.366;2023-10-09T02:41:06;0.82;;;0.30;;
67195;SDS011;54122;53.538;49.366;2023-10-09T02:43:32;0.82;;;0.35;;
67195;SDS011;54122;53.538;49.366;2023-10-09T02:46:06;0.63;;;0.45;;
67195;SDS011;54122;53.538;49.366;2023-10-09T02:48:40;3.30;;;0.30;;
67195;SDS011;54122;53.538;49.366;2023-10-09T02:51:13;0.80;;;0.45;;
67195;SDS011;54122;53.538;49.366;2023-10-09T02:53:57;3.67;;;0.75;;
67195;SDS011;54122;53.538;49.366;2023-10-09T02:56:25;1.00;;;0.28;;
67195;SDS011;54122;53.538;49.366;2023-10-09T02:59:08;0.65;;;0.30;;
67195;SDS011;54122;53.538;49.366;2023-10-09T03:01:35;10.05;;;0.63;;
67195;SDS011;54122;53.538;49.366;2023-10-09T03:04:03;0.45;;;0.20;;
67195;SDS011;54122;53.538;49.366;2023-10-09T03:06:31;1.40;;;0.45;;
67195;SDS011;54122;53.538;49.366;2023-10-09T03:09:00;0.32;;;0.20;;
67195;SDS011;54122;53.538;49.366;2023-10-09T03:11:45;0.67;;;0.40;;
67195;SDS011;54122;53.538;49.366;2023-10-09T03:14:14;2.22;;;0.88;;
67195;SDS011;54122;53.538;49.366;2023-10-09T03:16:42;0.70;;;0.28;;
67195;SDS011;54122;53.538;49.366;2023-10-09T03:19:08;2.13;;;0.60;;
67195;SDS011;54122;53.538;49.366;2023-10-09T03:21:39;0.55;;;0.28;;
67195;SDS011;54122;53.538;49.366;2023-10-09T03:24:07;0.35;;;0.28;;
67195;SDS011;54122;53.538;49.366;2023-10-09T03:26:34;3.58;;;0.47;;
67195;SDS011;54122;53.538;49.366;2023-10-09T03:29:01;0.40;;;0.30;;
67195;SDS011;54122;53.538;49.366;2023-10-09T03:31:28;0.40;;;0.13;;
67195;SDS011;54122;53.538;49.366;2023-10-09T03:33:56;0.68;;;0.40;;
67195;SDS011;54122;53.538;49.366;2023-10-09T03:36:23;0.50;;;0.20;;
67195;SDS011;54122;53.538;49.366;2023-10-09T03:38:52;2.30;;;0.80;;
67195;SDS011;54122;53.538;49.366;2023-10-09T03:41:24;2.90;;;0.65;;
67195;SDS011;54122;53.538;49.366;2023-10-09T03:43:54;0.68;;;0.30;;
67195;SDS011;54122;53.538;49.366;2023-10-09T03:46:21;1.15;;;0.50;;
67195;SDS011;54122;53.538;49.366;2023-10-09T03:48:51;0.68;;;0.38;;
67195;SDS011;54122;53.538;49.366;2023-10-09T03:51:19;0.50;;;0.30;;
67195;SDS011;54122;53.538;49.366;2023-10-09T03:53:48;0.82;;;0.40;;
67195;SDS011;54122;53.538;49.366;2023-10-09T03:56:16;0.32;;;0.10;;
67195;SDS011;54122;53.538;49.366;2023-10-09T03:58:43;1.65;;;0.45;;
67195;SDS011;54122;53.538;49.366;2023-10-09T04:01:12;0.47;;;0.30;;
67195;SDS011;54122;53.538;49.366;2023-10-09T04:03:49;1.20;;;0.22;;
67195;SDS011;54122;53.538;49.366;2023-10-09T04:06:28;3.08;;;0.50;;
67195;SDS011;54122;53.538;49.366;2023-10-09T04:08:58;3.72;;;0.28;;
67195;SDS011;54122;53.538;49.366;2023-10-09T04:11:47;11.45;;;0.63;;
67195;SDS011;54122;53.538;49.366;2023-10-09T04:14:15;0.90;;;0.30;;
67195;SDS011;54122;53.538;49.366;2023-10-09T04:16:51;0.30;;;0.13;;
67195;SDS011;54122;53.538;49.366;2023-10-09T04:19:22;0.75;;;0.25;;
67195;SDS011;54122;53.538;49.366;2023-10-09T04:21:48;0.75;;;0.17;;
67195;SDS011;54122;53.538;49.366;2023-10-09T04:24:14;1.88;;;0.32;;
67195;SDS011;54122;53.538;49.366;2023-10-09T04:26:42;0.50;;;0.25;;
67195;SDS011;54122;53.538;49.366;2023-10-09T04:29:12;0.47;;;0.20;;
67195;SDS011;54122;53.538;49.366;2023-10-09T04:31:52;2.88;;;0.32;;
67195;SDS011;54122;53.538;49.366;2023-10-09T04:34:21;0.40;;;0.13;;
67195;SDS011;54122;53.538;49.366;2023-10-09T04:37:09;1.30;;;0.22;;
67195;SDS011;54122;53.538;49.366;2023-10-09T04:39:41;3.22;;;0.17;;
67195;SDS011;54122;53.538;49.366;2023-10-09T04:42:14;1.95;;;0.25;;
67195;SDS011;54122;53.538;49.366;2023-10-09T04:44:49;3.72;;;0.22;;
67195;SDS011;54122;53.538;49.366;2023-10-09T04:47:34;0.55;;;0.25;;
67195;SDS011;54122;53.538;49.366;2023-10-09T04:50:05;0.08;;;0.05;;
67195;SDS011;54122;53.538;49.366;2023-10-09T04:52:37;4.00;;;0.30;;
67195;SDS011;54122;53.538;49.366;2023-10-09T04:55:04;0.47;;;0.22;;
67195;SDS011;54122;53.538;49.366;2023-10-09T05:00:10;1.52;;;0.30;;
67195;SDS011;54122;53.538;49.366;2023-10-09T05:02:53;2.80;;;0.30;;
67195;SDS011;54122;53.538;49.366;2023-10-09T05:05:25;1.20;;;0.30;;
67195;SDS011;54122;53.538;49.366;2023-10-09T05:08:07;0.28;;;0.10;;
67195;SDS011;54122;53.538;49.366;2023-10-09T05:10:50;0.60;;;0.20;;
67195;SDS011;54122;53.538;49.366;2023-10-09T05:16:05;0.77;;;0.22;;
67195;SDS011;54122;53.538;49.366;2023-10-09T05:18:48;2.47;;;0.28;;
67195;SDS011;54122;53.538;49.366;2023-10-09T05:21:37;0.32;;;0.15;;
67195;SDS011;54122;53.538;49.366;2023-10-09T05:24:08;1.00;;;0.30;;
67195;SDS011;54122;53.538;49.366;2023-10-09T05:26:37;0.60;;;0.30;;
67195;SDS011;54122;53.538;49.366;2023-10-09T05:29:21;0.80;;;0.20;;
67195;SDS011;54122;53.538;49.366;2023-10-09T05:31:54;2.08;;;0.32;;
67195;SDS011;54122;53.538;49.366;2023-10-09T05:34:38;1.85;;;0.20;;
67195;SDS011;54122;53.538;49.366;2023-10-09T05:37:27;5.05;;;0.20;;
67195;SDS011;54122;53.538;49.366;2023-10-09T05:40:08;6.53;;;0.35;;
67195;SDS011;54122;53.538;49.366;2023-10-09T05:42:44;0.57;;;0.20;;
67195;SDS011;54122;53.538;49.366;2023-10-09T05:45:12;2.30;;;0.20;;
67195;SDS011;54122;53.538;49.366;2023-10-09T05:47:57;2.78;;;0.55;;
67195;SDS011;54122;53.538;49.366;2023-10-09T05:50:49;1.15;;;0.57;;
67195;SDS011;54122;53.538;49.366;2023-10-09T05:53:16;0.52;;;0.35;;
67195;SDS011;54122;53.538;49.366;2023-10-09T05:56:04;0.80;;;0.35;;
67195;SDS011;54122;53.538;49.366;2023-10-09T05:58:49;0.10;;;0.10;;
67195;SDS011;54122;53.538;49.366;2023-10-09T06:01:33;1.95;;;0.10;;
67195;SDS011;54122;53.538;49.366;2023-10-09T06:04:18;0.68;;;0.20;;
67195;SDS011;54122;53.538;49.366;2023-10-09T06:06:45;1.90;;;0.55;;
67195;SDS011;54122;53.538;49.366;2023-10-09T06:09:12;0.70;;;0.32;;
67195;SDS011;54122;53.538;49.366;2023-10-09T06:11:39;0.75;;;0.22;;
67195;SDS011;54122;53.538;49.366;2023-10-09T06:14:15;1.50;;;0.20;;
67195;SDS011;54122;53.538;49.366;2023-10-09T06:17:11;0.25;;;0.17;;
67195;SDS011;54122;53.538;49.366;2023-10-09T06:19:50;6.53;;;0.40;;
67195;SDS011;54122;53.538;49.366;2023-10-09T06:22:24;2.42;;;0.60;;
67195;SDS011;54122;53.538;49.366;2023-10-09T06:25:22;0.45;;;0.20;;
67195;SDS011;54122;53.538;49.366;2023-10-09T06:27:58;4.18;;;0.77;;
67195;SDS011;54122;53.538;49.366;2023-10-09T06:30:24;5.50;;;0.50;;
67195;SDS011;54122;53.538;49.366;2023-10-09T06:32:52;0.32;;;0.20;;
67195;SDS011;54122;53.538;49.366;2023-10-09T06:35:45;1.02;;;0.20;;
67195;SDS011;54122;53.538;49.366;2023-10-09T06:38:20;0.40;;;0.10;;
67195;SDS011;54122;53.538;49.366;2023-10-09T06:40:48;1.20;;;0.50;;
67195;SDS011;54122;53.538;49.366;2023-10-09T06:43:28;0.80;;;0.32;;
67195;SDS011;54122;53.538;49.366;2023-10-09T06:45:55;0.73;;;0.10;;
67195;SDS011;54122;53.538;49.366;2023-10-09T06:48:45;0.47;;;0.20;;
67195;SDS011;54122;53.538;49.366;2023-10-09T06:51:12;1.75;;;0.10;;
67195;SDS011;54122;53.538;49.366;2023-10-09T06:53:42;0.55;;;0.32;;
67195;SDS011;54122;53.538;49.366;2023-10-09T06:56:26;2.22;;;0.60;;
67195;SDS011;54122;53.538;49.366;2023-10-09T06:58:59;0.22;;;0.13;;
67195;SDS011;54122;53.538;49.366;2023-10-09T07:01:40;0.70;;;0.22;;
67195;SDS011;54122;53.538;49.366;2023-10-09T07:04:13;0.40;;;0.20;;
67195;SDS011;54122;53.538;49.366;2023-10-09T07:07:06;3.03;;;0.20;;
67195;SDS011;54122;53.538;49.366;2023-10-09T07:09:38;2.30;;;0.40;;
67195;SDS011;54122;53.538;49.366;2023-10-09T07:12:08;0.40;;;0.20;;
67195;SDS011;54122;53.538;49.366;2023-10-09T07:14:52;0.40;;;0.20;;
67195;SDS011;54122;53.538;49.366;2023-10-09T07:17:21;3.17;;;1.98;;
67195;SDS011;54122;53.538;49.366;2023-10-09T07:19:49;1.65;;;0.93;;
67195;SDS011;54122;53.538;49.366;2023-10-09T07:22:16;0.10;;;0.10;;
67195;SDS011;54122;53.538;49.366;2023-10-09T07:24:48;1.75;;;0.63;;
67195;SDS011;54122;53.538;49.366;2023-10-09T07:27:40;1.77;;;0.50;;
67195;SDS011;54122;53.538;49.366;2023-10-09T07:30:15;0.13;;;0.13;;
67195;SDS011;54122;53.538;49.366;2023-10-09T07:33:01;1.13;;;0.20;;
67195;SDS011;54122;53.538;49.366;2023-10-09T07:35:32;1.67;;;0.47;;
67195;SDS011;54122;53.538;49.366;2023-10-09T07:38:12;0.82;;;0.40;;
67195;SDS011;54122;53.538;49.366;2023-10-09T07:40:54;0.73;;;0.30;;
67195;SDS011;54122;53.538;49.366;2023-10-09T07:43:42;3.42;;;0.70;;
67195;SDS011;54122;53.538;49.366;2023-10-09T07:46:10;0.35;;;0.20;;
67195;SDS011;54122;53.538;49.366;2023-10-09T07:49:04;0.38;;;0.20;;
67195;SDS011;54122;53.538;49.366;2023-10-09T07:51:46;0.30;;;0.05;;
67195;SDS011;54122;53.538;49.366;2023-10-09T07:54:13;0.43;;;0.20;;
67195;SDS011;54122;53.538;49.366;2023-10-09T07:56:40;0.43;;;0.28;;
67195;SDS011;54122;53.538;49.366;2023-10-09T07:59:11;0.40;;;0.17;;
67195;SDS011;54122;53.538;49.366;2023-10-09T08:01:42;0.40;;;0.25;;
67195;SDS011;54122;53.538;49.366;2023-10-09T08:04:24;0.75;;;0.28;;
67195;SDS011;54122;53.538;49.366;2023-10-09T08:07:06;0.85;;;0.30;;
67195;SDS011;54122;53.538;49.366;2023-10-09T08:09:51;1.65;;;0.20;;
67195;SDS011;54122;53.538;49.366;2023-10-09T08:12:39;0.98;;;0.40;;
67195;SDS011;54122;53.538;49.366;2023-10-09T08:15:15;3.10;;;0.38;;
67195;SDS011;54122;53.538;49.366;2023-10-09T08:17:51;1.02;;;0.43;;
67195;SDS011;54122;53.538;49.366;2023-10-09T08:20:43;0.50;;;0.28;;
67195;SDS011;54122;53.538;49.366;2023-10-09T08:23:28;3.80;;;0.30;;
67195;SDS011;54122;53.538;49.366;2023-10-09T08:26:14;0.13;;;0.10;;
67195;SDS011;54122;53.538;49.366;2023-10-09T08:28:56;1.00;;;0.30;;
67195;SDS011;54122;53.538;49.366;2023-10-09T08:31:41;1.13;;;0.40;;
67195;SDS011;54122;53.538;49.366;2023-10-09T08:34:11;3.13;;;1.05;;
67195;SDS011;54122;53.538;49.366;2023-10-09T08:36:51;4.60;;;0.47;;
67195;SDS011;54122;53.538;49.366;2023-10-09T08:39:18;0.40;;;0.10;;
67195;SDS011;54122;53.538;49.366;2023-10-09T08:41:53;4.38;;;0.30;;
67195;SDS011;54122;53.538;49.366;2023-10-09T08:44:24;0.50;;;0.17;;
67195;SDS011;54122;53.538;49.366;2023-10-09T08:46:55;1.40;;;0.30;;
67195;SDS011;54122;53.538;49.366;2023-10-09T08:49:23;0.38;;;0.10;;
67195;SDS011;54122;53.538;49.366;2023-10-09T08:51:51;0.10;;;0.10;;
67195;SDS011;54122;53.538;49.366;2023-10-09T08:54:20;0.28;;;0.10;;
67195;SDS011;54122;53.538;49.366;2023-10-09T08:56:46;1.35;;;0.20;;
67195;SDS011;54122;53.538;49.366;2023-10-09T08:59:16;0.55;;;0.20;;
67195;SDS011;54122;53.538;49.366;2023-10-09T09:01:46;1.80;;;0.20;;
67195;SDS011;54122;53.538;49.366;2023-10-09T09:04:35;0.30;;;0.30;;
67195;SDS011;54122;53.538;49.366;2023-10-09T09:07:04;0.28;;;0.10;;
67195;SDS011;54122;53.538;49.366;2023-10-09T09:09:55;0.13;;;0.10;;
67195;SDS011;54122;53.538;49.366;2023-10-09T09:12:22;0.10;;;0.10;;
67195;SDS011;54122;53.538;49.366;2023-10-09T09:14:49;0.73;;;0.10;;
67195;SDS011;54122;53.538;49.366;2023-10-09T09:17:22;1.75;;;0.20;;
67195;SDS011;54122;53.538;49.366;2023-10-09T09:19:53;1.30;;;0.40;;
67195;SDS011;54122;53.538;49.366;2023-10-09T09:22:19;0.10;;;0.10;;
67195;SDS011;54122;53.538;49.366;2023-10-09T09:24:59;3.30;;;0.20;;
67195;SDS011;54122;53.538;49.366;2023-10-09T09:27:44;0.55;;;0.10;;
67195;SDS011;54122;53.538;49.366;2023-10-09T09:30:35;0.10;;;0.00;;
67195;SDS011;54122;53.538;49.366;2023-10-09T09:33:18;0.65;;;0.28;;
67195;SDS011;54122;53.538;49.366;2023-10-09T09:35:59;0.20;;;0.15;;
67195;SDS011;54122;53.538;49.366;2023-10-09T09:38:31;14.30;;;0.73;;
67195;SDS011;54122;53.538;49.366;2023-10-09T09:41:08;0.52;;;0.20;;
67195;SDS011;54122;53.538;49.366;2023-10-09T09:43:41;0.20;;;0.00;;
67195;SDS011;54122;53.538;49.366;2023-10-09T09:46:12;0.10;;;0.10;;
67195;SDS011;54122;53.538;49.366;2023-10-09T09:48:41;0.00;;;0.00;;
67195;SDS011;54122;53.538;49.366;2023-10-09T09:51:13;2.17;;;0.30;;
67195;SDS011;54122;53.538;49.366;2023-10-09T09:53:43;0.10;;;0.10;;
67195;SDS011;54122;53.538;49.366;2023-10-09T09:56:19;1.00;;;0.10;;
67195;SDS011;54122;53.538;49.366;2023-10-09T09:58:50;0.55;;;0.20;;
67195;SDS011;54122;53.538;49.366;2023-10-09T10:01:25;0.28;;;0.10;;
67195;SDS011;54122;53.538;49.366;2023-10-09T10:04:06;0.13;;;0.10;;
67195;SDS011;54122;53.538;49.366;2023-10-09T10:06:37;0.10;;;0.10;;
67195;SDS011;54122;53.538;49.366;2023-10-09T10:09:09;3.53;;;0.20;;
67195;SDS011;54122;53.538;49.366;2023-10-09T10:14:10;0.10;;;0.10;;
67195;SDS011;54122;53.538;49.366;2023-10-09T10:17:06;1.73;;;0.30;;
67195;SDS011;54122;53.538;49.366;2023-10-09T10:20:04;0.20;;;0.03;;
67195;SDS011;54122;53.538;49.366;2023-10-09T10:23:36;0.03;;;0.03;;
67195;SDS011;54122;53.538;49.366;2023-10-09T10:25:51;0.00;;;0.00;;
67195;SDS011;54122;53.538;49.366;2023-10-09T10:28:26;0.93;;;0.15;;
67195;SDS011;54122;53.538;49.366;2023-10-09T10:31:09;2.72;;;0.32;;
67195;SDS011;54122;53.538;49.366;2023-10-09T10:36:21;0.70;;;0.20;;
67195;SDS011;54122;53.538;49.366;2023-10-09T10:39:04;0.45;;;0.08;;
67195;SDS011;54122;53.538;49.366;2023-10-09T10:41:53;0.82;;;0.20;;
67195;SDS011;54122;53.538;49.366;2023-10-09T10:44:28;0.13;;;0.00;;
67195;SDS011;54122;53.538;49.366;2023-10-09T10:47:03;0.28;;;0.10;;
67195;SDS011;54122;53.538;49.366;2023-10-09T10:49:51;0.10;;;0.00;;
67195;SDS011;54122;53.538;49.366;2023-10-09T10:52:42;5.82;;;0.20;;
67195;SDS011;54122;53.538;49.366;2023-10-09T10:55:14;0.13;;;0.03;;
67195;SDS011;54122;53.538;49.366;2023-10-09T10:58:19;0.00;;;0.00;;
67195;SDS011;54122;53.538;49.366;2023-10-09T11:01:01;0.47;;;0.10;;
67195;SDS011;54122;53.538;49.366;2023-10-09T11:03:37;0.25;;;0.10;;
67195;SDS011;54122;53.538;49.366;2023-10-09T11:06:30;0.40;;;0.10;;
67195;SDS011;54122;53.538;49.366;2023-10-09T11:09:08;0.10;;;0.10;;
67195;SDS011;54122;53.538;49.366;2023-10-09T11:12:03;0.63;;;0.15;;
67195;SDS011;54122;53.538;49.366;2023-10-09T11:14:47;6.63;;;1.50;;
67195;SDS011;54122;53.538;49.366;2023-10-09T11:17:37;1.23;;;0.08;;
67195;SDS011;54122;53.538;49.366;2023-10-09T11:20:06;1.55;;;0.55;;
67195;SDS011;54122;53.538;49.366;2023-10-09T11:22:50;0.32;;;0.10;;
67195;SDS011;54122;53.538;49.366;2023-10-09T11:25:40;0.40;;;0.15;;
67195;SDS011;54122;53.538;49.366;2023-10-09T11:28:19;0.20;;;0.10;;
67195;SDS011;54122;53.538;49.366;2023-10-09T11:31:09;3.20;;;0.10;;
67195;SDS011;54122;53.538;49.366;2023-10-09T11:33:43;0.38;;;0.10;;
67195;SDS011;54122;53.538;49.366;2023-10-09T11:36:11;7.32;;;0.10;;
67195;SDS011;54122;53.538;49.366;2023-10-09T11:38:41;1.38;;;0.10;;
67195;SDS011;54122;53.538;49.366;2023-10-09T11:41:20;1.45;;;0.10;;
67195;SDS011;54122;53.538;49.366;2023-10-09T11:43:53;4.38;;;0.10;;
67195;SDS011;54122;53.538;49.366;2023-10-09T11:46:23;0.38;;;0.10;;
67195;SDS011;54122;53.538;49.366;2023-10-09T11:49:05;0.15;;;0.10;;
67195;SDS011;54122;53.538;49.366;2023-10-09T11:52:07;0.43;;;0.30;;
67195;SDS011;54122;53.538;49.366;2023-10-09T11:54:35;0.35;;;0.10;;
67195;SDS011;54122;53.538;49.366;2023-10-09T11:57:03;2.45;;;0.30;;
67195;SDS011;54122;53.538;49.366;2023-10-09T11:59:30;1.10;;;0.47;;
67195;SDS011;54122;53.538;49.366;2023-10-09T12:02:09;0.30;;;0.10;;
67195;SDS011;54122;53.538;49.366;2023-10-09T12:04:43;0.38;;;0.15;;
67195;SDS011;54122;53.538;49.366;2023-10-09T12:07:12;0.77;;;0.20;;
67195;SDS011;54122;53.538;49.366;2023-10-09T12:09:39;0.90;;;0.22;;
67195;SDS011;54122;53.538;49.366;2023-10-09T12:12:08;1.65;;;0.20;;
67195;SDS011;54122;53.538;49.366;2023-10-09T12:14:35;0.10;;;0.00;;
67195;SDS011;54122;53.538;49.366;2023-10-09T12:17:07;0.20;;;0.00;;
67195;SDS011;54122;53.538;49.366;2023-10-09T12:19:43;0.38;;;0.10;;
67195;SDS011;54122;53.538;49.366;2023-10-09T12:22:09;0.70;;;0.10;;
67195;SDS011;54122;53.538;49.366;2023-10-09T12:24:41;0.00;;;0.00;;
67195;SDS011;54122;53.538;49.366;2023-10-09T12:27:11;0.00;;;0.00;;
67195;SDS011;54122;53.538;49.366;2023-10-09T12:29:38;0.22;;;0.10;;
67195;SDS011;54122;53.538;49.366;2023-10-09T12:32:10;7.18;;;0.32;;
67195;SDS011;54122;53.538;49.366;2023-10-09T12:34:37;0.63;;;0.10;;
67195;SDS011;54122;53.538;49.366;2023-10-09T12:37:07;1.42;;;0.20;;
67195;SDS011;54122;53.538;49.366;2023-10-09T12:39:38;0.20;;;0.10;;
67195;SDS011;54122;53.538;49.366;2023-10-09T12:42:06;0.17;;;0.00;;
67195;SDS011;54122;53.538;49.366;2023-10-09T12:44:37;0.10;;;0.10;;
67195;SDS011;54122;53.538;49.366;2023-10-09T12:47:08;0.00;;;0.00;;
67195;SDS011;54122;53.538;49.366;2023-10-09T12:49:37;0.90;;;0.10;;
67195;SDS011;54122;53.538;49.366;2023-10-09T12:52:07;5.28;;;0.30;;
67195;SDS011;54122;53.538;49.366;2023-10-09T12:54:55;0.10;;;0.10;;
67195;SDS011;54122;53.538;49.366;2023-10-09T12:57:22;0.00;;;0.00;;
67195;SDS011;54122;53.538;49.366;2023-10-09T12:59:54;0.60;;;0.13;;
67195;SDS011;54122;53.538;49.366;2023-10-09T13:02:21;0.10;;;0.03;;
67195;SDS011;54122;53.538;49.366;2023-10-09T13:04:56;0.30;;;0.10;;
67195;SDS011;54122;53.538;49.366;2023-10-09T13:07:25;0.10;;;0.00;;
67195;SDS011;54122;53.538;49.366;2023-10-09T13:09:52;0.13;;;0.10;;
67195;SDS011;54122;53.538;49.366;2023-10-09T13:12:39;0.30;;;0.10;;
67195;SDS011;54122;53.538;49.366;2023-10-09T13:15:08;3.20;;;0.10;;
67195;SDS011;54122;53.538;49.366;2023-10-09T13:17:36;0.28;;;0.03;;
67195;SDS011;54122;53.538;49.366;2023-10-09T13:20:03;1.60;;;0.35;;
67195;SDS011;54122;53.538;49.366;2023-10-09T13:22:41;3.25;;;0.70;;
67195;SDS011;54122;53.538;49.366;2023-10-09T13:25:09;0.50;;;0.20;;
67195;SDS011;54122;53.538;49.366;2023-10-09T13:27:42;1.20;;;0.20;;
67195;SDS011;54122;53.538;49.366;2023-10-09T13:30:19;1.55;;;0.43;;
67195;SDS011;54122;53.538;49.366;2023-10-09T13:32:49;0.88;;;0.38;;
67195;SDS011;54122;53.538;49.366;2023-10-09T13:35:19;1.40;;;0.40;;
67195;SDS011;54122;53.538;49.366;2023-10-09T13:37:53;0.22;;;0.22;;
67195;SDS011;54122;53.538;49.366;2023-10-09T13:40:23;0.80;;;0.50;;
67195;SDS011;54122;53.538;49.366;2023-10-09T13:42:53;5.97;;;2.60;;
67195;SDS011;54122;53.538;49.366;2023-10-09T13:45:25;17.65;;;3.47;;
67195;SDS011;54122;53.538;49.366;2023-10-09T13:47:56;22.52;;;6.47;;
67195;SDS011;54122;53.538;49.366;2023-10-09T13:50:28;17.13;;;6.55;;
67195;SDS011;54122;53.538;49.366;2023-10-09T13:52:58;8.63;;;3.08;;
67195;SDS011;54122;53.538;49.366;2023-10-09T13:55:36;0.43;;;0.20;;
67195;SDS011;54122;53.538;49.366;2023-10-09T13:58:09;1.17;;;0.35;;
67195;SDS011;54122;53.538;49.366;2023-10-09T14:00:41;0.60;;;0.50;;
67195;SDS011;54122;53.538;49.366;2023-10-09T14:03:08;3.75;;;1.10;;
67195;SDS011;54122;53.538;49.366;2023-10-09T14:05:38;0.88;;;0.20;;
67195;SDS011;54122;53.538;49.366;2023-10-09T14:08:26;1.23;;;0.43;;
67195;SDS011;54122;53.538;49.366;2023-10-09T14:10:54;0.20;;;0.20;;
67195;SDS011;54122;53.538;49.366;2023-10-09T14:13:21;2.65;;;0.55;;
67195;SDS011;54122;53.538;49.366;2023-10-09T14:15:54;1.33;;;0.20;;
67195;SDS011;54122;53.538;49.366;2023-10-09T14:18:23;0.60;;;0.20;;
67195;SDS011;54122;53.538;49.366;2023-10-09T14:20:50;0.85;;;0.38;;
67195;SDS011;54122;53.538;49.366;2023-10-09T14:23:22;0.30;;;0.20;;
67195;SDS011;54122;53.538;49.366;2023-10-09T14:25:50;0.10;;;0.10;;
67195;SDS011;54122;53.538;49.366;2023-10-09T14:28:19;0.38;;;0.10;;
67195;SDS011;54122;53.538;49.366;2023-10-09T14:30:46;2.05;;;0.17;;
67195;SDS011;54122;53.538;49.366;2023-10-09T14:33:25;0.35;;;0.10;;
67195;SDS011;54122;53.538;49.366;2023-10-09T14:36:02;0.00;;;0.00;;
67195;SDS011;54122;53.538;49.366;2023-10-09T14:38:31;0.30;;;0.17;;
67195;SDS011;54122;53.538;49.366;2023-10-09T14:40:58;0.40;;;0.20;;
67195;SDS011;54122;53.538;49.366;2023-10-09T14:43:25;0.35;;;0.20;;
67195;SDS011;54122;53.538;49.366;2023-10-09T14:45:59;0.75;;;0.30;;
67195;SDS011;54122;53.538;49.366;2023-10-09T14:48:25;0.77;;;0.30;;
67195;SDS011;54122;53.538;49.366;2023-10-09T14:50:55;0.40;;;0.20;;
67195;SDS011;54122;53.538;49.366;2023-10-09T14:53:33;0.70;;;0.20;;
67195;SDS011;54122;53.538;49.366;2023-10-09T14:56:00;0.22;;;0.20;;
67195;SDS011;54122;53.538;49.366;2023-10-09T14:58:35;0.43;;;0.20;;
67195;SDS011;54122;53.538;49.366;2023-10-09T15:01:14;0.85;;;0.22;;
67195;SDS011;54122;53.538;49.366;2023-10-09T15:03:44;0.08;;;0.08;;
67195;SDS011;54122;53.538;49.366;2023-10-09T15:06:13;0.20;;;0.15;;
67195;SDS011;54122;53.538;49.366;2023-10-09T15:08:40;0.10;;;0.08;;
67195;SDS011;54122;53.538;49.366;2023-10-09T15:11:11;0.10;;;0.10;;
67195;SDS011;54122;53.538;49.366;2023-10-09T15:13:37;0.57;;;0.32;;
67195;SDS011;54122;53.538;49.366;2023-10-09T15:16:05;1.15;;;0.40;;
67195;SDS011;54122;53.538;49.366;2023-10-09T15:18:34;0.40;;;0.30;;
67195;SDS011;54122;53.538;49.366;2023-10-09T15:21:02;0.27;;;0.17;;
67195;SDS011;54122;53.538;49.366;2023-10-09T15:23:32;0.85;;;0.40;;
67195;SDS011;54122;53.538;49.366;2023-10-09T15:25:59;0.65;;;0.40;;
67195;SDS011;54122;53.538;49.366;2023-10-09T15:28:32;9.07;;;0.25;;
67195;SDS011;54122;53.538;49.366;2023-10-09T15:30:58;0.10;;;0.10;;
67195;SDS011;54122;53.538;49.366;2023-10-09T15:33:29;1.10;;;0.17;;
67195;SDS011;54122;53.538;49.366;2023-10-09T15:35:56;0.15;;;0.03;;
67195;SDS011;54122;53.538;49.366;2023-10-09T15:38:24;0.60;;;0.25;;